sensor_id;sensor_type;location;lat;lon;timestamp;P1;durP1;ratioP1;P2;durP2;ratioP2
58954;SDS011;45815;52.334;5.024;2024-02-15T00:00:15;22.95;;;6.13;;
58954;SDS011;45815;52.334;5.024;2024-02-15T00:02:42;19.95;;;6.40;;
58954;SDS011;45815;52.334;5.024;2024-02-15T00:05:09;19.65;;;5.53;;
58954;SDS011;45815;52.334;5.024;2024-02-15T00:07:35;20.48;;;6.05;;
58954;SDS011;45815;52.334;5.024;2024-02-15T00:10:01;24.38;;;7.68;;
58954;SDS011;45815;52.334;5.024;2024-02-15T00:12:29;26.67;;;7.50;;
58954;SDS011;45815;52.334;5.024;2024-02-15T00:14:55;22.55;;;7.15;;
58954;SDS011;45815;52.334;5.024;2024-02-15T00:17:23;21.17;;;6.90;;
58954;SDS011;45815;52.334;5.024;2024-02-15T00:19:50;28.05;;;7.60;;
58954;SDS011;45815;52.334;5.024;2024-02-15T00:22:15;23.90;;;7.90;;
58954;SDS011;45815;52.334;5.024;2024-02-15T00:24:40;24.42;;;9.15;;
58954;SDS011;45815;52.334;5.024;2024-02-15T00:27:07;21.00;;;7.25;;
58954;SDS011;45815;52.334;5.024;2024-02-15T00:29:33;25.30;;;8.30;;
58954;SDS011;45815;52.334;5.024;2024-02-15T00:31:59;26.13;;;7.85;;
58954;SDS011;45815;52.334;5.024;2024-02-15T00:34:26;24.73;;;7.03;;
58954;SDS011;45815;52.334;5.024;2024-02-15T00:36:52;27.30;;;6.63;;
58954;SDS011;45815;52.334;5.024;2024-02-15T00:39:17;19.65;;;5.90;;
58954;SDS011;45815;52.334;5.024;2024-02-15T00:41:46;21.95;;;6.38;;
58954;SDS011;45815;52.334;5.024;2024-02-15T00:44:11;26.60;;;5.55;;
58954;SDS011;45815;52.334;5.024;2024-02-15T00:46:37;25.48;;;6.20;;
58954;SDS011;45815;52.334;5.024;2024-02-15T00:49:03;19.52;;;5.93;;
58954;SDS011;45815;52.334;5.024;2024-02-15T00:51:31;21.25;;;5.10;;
58954;SDS011;45815;52.334;5.024;2024-02-15T00:54:02;19.88;;;5.75;;
58954;SDS011;45815;52.334;5.024;2024-02-15T00:56:28;16.58;;;5.13;;
58954;SDS011;45815;52.334;5.024;2024-02-15T00:58:55;22.95;;;5.78;;
58954;SDS011;45815;52.334;5.024;2024-02-15T01:01:20;17.95;;;4.53;;
58954;SDS011;45815;52.334;5.024;2024-02-15T01:03:46;16.70;;;4.93;;
58954;SDS011;45815;52.334;5.024;2024-02-15T01:06:12;17.05;;;5.40;;
58954;SDS011;45815;52.334;5.024;2024-02-15T01:08:38;18.45;;;6.18;;
58954;SDS011;45815;52.334;5.024;2024-02-15T01:11:04;16.08;;;5.53;;
58954;SDS011;45815;52.334;5.024;2024-02-15T01:13:29;20.17;;;6.60;;
58954;SDS011;45815;52.334;5.024;2024-02-15T01:15:55;19.00;;;6.47;;
58954;SDS011;45815;52.334;5.024;2024-02-15T01:18:21;15.52;;;6.85;;
58954;SDS011;45815;52.334;5.024;2024-02-15T01:20:46;22.58;;;8.18;;
58954;SDS011;45815;52.334;5.024;2024-02-15T01:23:11;22.00;;;8.38;;
58954;SDS011;45815;52.334;5.024;2024-02-15T01:25:37;18.70;;;7.30;;
58954;SDS011;45815;52.334;5.024;2024-02-15T01:28:02;17.67;;;7.50;;
58954;SDS011;45815;52.334;5.024;2024-02-15T01:30:28;18.33;;;7.15;;
58954;SDS011;45815;52.334;5.024;2024-02-15T01:32:54;16.85;;;7.38;;
58954;SDS011;45815;52.334;5.024;2024-02-15T01:35:20;20.05;;;7.55;;
58954;SDS011;45815;52.334;5.024;2024-02-15T01:37:45;17.65;;;6.80;;
58954;SDS011;45815;52.334;5.024;2024-02-15T01:40:11;22.25;;;7.20;;
58954;SDS011;45815;52.334;5.024;2024-02-15T01:42:38;17.17;;;7.20;;
58954;SDS011;45815;52.334;5.024;2024-02-15T01:45:04;17.85;;;6.13;;
58954;SDS011;45815;52.334;5.024;2024-02-15T01:47:31;17.98;;;5.93;;
58954;SDS011;45815;52.334;5.024;2024-02-15T01:49:56;18.33;;;6.43;;
58954;SDS011;45815;52.334;5.024;2024-02-15T01:52:22;18.05;;;6.85;;
58954;SDS011;45815;52.334;5.024;2024-02-15T01:54:48;16.63;;;6.45;;
58954;SDS011;45815;52.334;5.024;2024-02-15T01:57:16;17.15;;;5.88;;
58954;SDS011;45815;52.334;5.024;2024-02-15T01:59:43;14.23;;;6.38;;
58954;SDS011;45815;52.334;5.024;2024-02-15T02:02:09;16.65;;;6.32;;
58954;SDS011;45815;52.334;5.024;2024-02-15T02:04:37;16.83;;;6.65;;
58954;SDS011;45815;52.334;5.024;2024-02-15T02:07:03;20.00;;;6.78;;
58954;SDS011;45815;52.334;5.024;2024-02-15T02:09:29;17.13;;;7.07;;
58954;SDS011;45815;52.334;5.024;2024-02-15T02:11:54;17.83;;;7.22;;
58954;SDS011;45815;52.334;5.024;2024-02-15T02:14:20;12.77;;;7.13;;
58954;SDS011;45815;52.334;5.024;2024-02-15T02:16:45;18.73;;;6.65;;
58954;SDS011;45815;52.334;5.024;2024-02-15T02:19:11;17.88;;;8.07;;
58954;SDS011;45815;52.334;5.024;2024-02-15T02:21:37;17.65;;;7.32;;
58954;SDS011;45815;52.334;5.024;2024-02-15T02:24:06;17.25;;;7.43;;
58954;SDS011;45815;52.334;5.024;2024-02-15T02:26:37;15.65;;;7.82;;
58954;SDS011;45815;52.334;5.024;2024-02-15T02:29:04;15.30;;;7.85;;
58954;SDS011;45815;52.334;5.024;2024-02-15T02:31:35;15.98;;;8.23;;
58954;SDS011;45815;52.334;5.024;2024-02-15T02:34:01;21.38;;;8.38;;
58954;SDS011;45815;52.334;5.024;2024-02-15T02:36:27;23.33;;;8.40;;
58954;SDS011;45815;52.334;5.024;2024-02-15T02:38:54;18.13;;;8.32;;
58954;SDS011;45815;52.334;5.024;2024-02-15T02:41:20;19.95;;;9.10;;
58954;SDS011;45815;52.334;5.024;2024-02-15T02:43:46;20.70;;;9.80;;
58954;SDS011;45815;52.334;5.024;2024-02-15T02:46:12;16.98;;;8.95;;
58954;SDS011;45815;52.334;5.024;2024-02-15T02:48:38;21.00;;;9.07;;
58954;SDS011;45815;52.334;5.024;2024-02-15T02:51:04;22.05;;;10.70;;
58954;SDS011;45815;52.334;5.024;2024-02-15T02:53:31;19.38;;;9.95;;
58954;SDS011;45815;52.334;5.024;2024-02-15T02:55:56;23.30;;;10.63;;
58954;SDS011;45815;52.334;5.024;2024-02-15T02:58:22;18.73;;;10.25;;
58954;SDS011;45815;52.334;5.024;2024-02-15T03:00:51;21.58;;;10.88;;
58954;SDS011;45815;52.334;5.024;2024-02-15T03:03:16;22.20;;;10.95;;
58954;SDS011;45815;52.334;5.024;2024-02-15T03:05:44;20.02;;;10.95;;
58954;SDS011;45815;52.334;5.024;2024-02-15T03:08:09;20.40;;;10.13;;
58954;SDS011;45815;52.334;5.024;2024-02-15T03:10:36;21.38;;;11.30;;
58954;SDS011;45815;52.334;5.024;2024-02-15T03:13:01;25.02;;;11.52;;
58954;SDS011;45815;52.334;5.024;2024-02-15T03:15:27;27.13;;;12.90;;
58954;SDS011;45815;52.334;5.024;2024-02-15T03:17:53;21.48;;;10.90;;
58954;SDS011;45815;52.334;5.024;2024-02-15T03:20:18;24.80;;;12.15;;
58954;SDS011;45815;52.334;5.024;2024-02-15T03:22:53;21.92;;;12.68;;
58954;SDS011;45815;52.334;5.024;2024-02-15T03:25:19;23.83;;;12.05;;
58954;SDS011;45815;52.334;5.024;2024-02-15T03:27:48;21.25;;;11.90;;
58954;SDS011;45815;52.334;5.024;2024-02-15T03:30:21;21.38;;;11.82;;
58954;SDS011;45815;52.334;5.024;2024-02-15T03:32:47;25.30;;;12.90;;
58954;SDS011;45815;52.334;5.024;2024-02-15T03:35:17;29.48;;;12.82;;
58954;SDS011;45815;52.334;5.024;2024-02-15T03:37:43;23.42;;;12.07;;
58954;SDS011;45815;52.334;5.024;2024-02-15T03:40:09;21.85;;;11.07;;
58954;SDS011;45815;52.334;5.024;2024-02-15T03:42:38;25.23;;;11.73;;
58954;SDS011;45815;52.334;5.024;2024-02-15T03:45:03;21.95;;;11.90;;
58954;SDS011;45815;52.334;5.024;2024-02-15T03:47:31;26.08;;;12.65;;
58954;SDS011;45815;52.334;5.024;2024-02-15T03:50:04;22.88;;;11.70;;
58954;SDS011;45815;52.334;5.024;2024-02-15T03:52:30;21.88;;;11.60;;
58954;SDS011;45815;52.334;5.024;2024-02-15T03:54:56;20.10;;;10.95;;
58954;SDS011;45815;52.334;5.024;2024-02-15T03:57:25;23.48;;;10.57;;
58954;SDS011;45815;52.334;5.024;2024-02-15T03:59:51;20.92;;;10.55;;
58954;SDS011;45815;52.334;5.024;2024-02-15T04:02:18;21.73;;;11.30;;
58954;SDS011;45815;52.334;5.024;2024-02-15T04:04:44;23.48;;;11.63;;
58954;SDS011;45815;52.334;5.024;2024-02-15T04:07:15;23.83;;;10.60;;
58954;SDS011;45815;52.334;5.024;2024-02-15T04:09:47;24.23;;;10.63;;
58954;SDS011;45815;52.334;5.024;2024-02-15T04:12:13;22.55;;;10.38;;
58954;SDS011;45815;52.334;5.024;2024-02-15T04:14:39;25.35;;;10.88;;
58954;SDS011;45815;52.334;5.024;2024-02-15T04:17:06;24.73;;;11.50;;
58954;SDS011;45815;52.334;5.024;2024-02-15T04:19:31;19.70;;;10.48;;
58954;SDS011;45815;52.334;5.024;2024-02-15T04:21:57;20.67;;;9.82;;
58954;SDS011;45815;52.334;5.024;2024-02-15T04:24:22;24.13;;;10.10;;
58954;SDS011;45815;52.334;5.024;2024-02-15T04:26:48;20.25;;;10.00;;
58954;SDS011;45815;52.334;5.024;2024-02-15T04:29:14;16.02;;;9.30;;
58954;SDS011;45815;52.334;5.024;2024-02-15T04:31:40;23.17;;;10.20;;
58954;SDS011;45815;52.334;5.024;2024-02-15T04:34:07;20.60;;;9.60;;
58954;SDS011;45815;52.334;5.024;2024-02-15T04:36:34;27.25;;;10.27;;
58954;SDS011;45815;52.334;5.024;2024-02-15T04:39:03;22.90;;;9.43;;
58954;SDS011;45815;52.334;5.024;2024-02-15T04:41:29;23.15;;;10.52;;
58954;SDS011;45815;52.334;5.024;2024-02-15T04:43:54;24.17;;;10.93;;
58954;SDS011;45815;52.334;5.024;2024-02-15T04:46:20;23.85;;;9.85;;
58954;SDS011;45815;52.334;5.024;2024-02-15T04:48:49;19.60;;;9.93;;
58954;SDS011;45815;52.334;5.024;2024-02-15T04:51:15;22.33;;;10.10;;
58954;SDS011;45815;52.334;5.024;2024-02-15T04:53:44;24.40;;;10.57;;
58954;SDS011;45815;52.334;5.024;2024-02-15T04:56:14;22.52;;;9.57;;
58954;SDS011;45815;52.334;5.024;2024-02-15T04:58:40;20.67;;;10.18;;
58954;SDS011;45815;52.334;5.024;2024-02-15T05:01:15;19.95;;;10.82;;
58954;SDS011;45815;52.334;5.024;2024-02-15T05:03:44;26.02;;;11.15;;
58954;SDS011;45815;52.334;5.024;2024-02-15T05:06:10;25.05;;;10.80;;
58954;SDS011;45815;52.334;5.024;2024-02-15T05:08:38;26.50;;;10.73;;
58954;SDS011;45815;52.334;5.024;2024-02-15T05:11:10;24.25;;;11.02;;
58954;SDS011;45815;52.334;5.024;2024-02-15T05:13:44;22.17;;;10.57;;
58954;SDS011;45815;52.334;5.024;2024-02-15T05:16:10;23.45;;;10.63;;
58954;SDS011;45815;52.334;5.024;2024-02-15T05:18:36;19.80;;;11.70;;
58954;SDS011;45815;52.334;5.024;2024-02-15T05:21:03;27.35;;;11.73;;
58954;SDS011;45815;52.334;5.024;2024-02-15T05:23:29;24.67;;;11.73;;
58954;SDS011;45815;52.334;5.024;2024-02-15T05:25:55;25.10;;;12.57;;
58954;SDS011;45815;52.334;5.024;2024-02-15T05:28:21;20.23;;;11.27;;
58954;SDS011;45815;52.334;5.024;2024-02-15T05:31:08;21.40;;;12.23;;
58954;SDS011;45815;52.334;5.024;2024-02-15T05:33:42;25.40;;;12.10;;
58954;SDS011;45815;52.334;5.024;2024-02-15T05:36:11;20.90;;;11.93;;
58954;SDS011;45815;52.334;5.024;2024-02-15T05:38:38;19.90;;;11.50;;
58954;SDS011;45815;52.334;5.024;2024-02-15T05:41:04;22.05;;;12.00;;
58954;SDS011;45815;52.334;5.024;2024-02-15T05:43:29;25.02;;;12.77;;
58954;SDS011;45815;52.334;5.024;2024-02-15T05:45:55;25.02;;;12.85;;
58954;SDS011;45815;52.334;5.024;2024-02-15T05:48:23;22.60;;;11.45;;
58954;SDS011;45815;52.334;5.024;2024-02-15T05:50:48;20.80;;;12.48;;
58954;SDS011;45815;52.334;5.024;2024-02-15T05:53:13;25.05;;;12.77;;
58954;SDS011;45815;52.334;5.024;2024-02-15T05:55:39;23.20;;;12.85;;
58954;SDS011;45815;52.334;5.024;2024-02-15T05:58:09;23.70;;;12.88;;
58954;SDS011;45815;52.334;5.024;2024-02-15T06:00:36;24.02;;;13.43;;
58954;SDS011;45815;52.334;5.024;2024-02-15T06:03:04;25.38;;;13.95;;
58954;SDS011;45815;52.334;5.024;2024-02-15T06:05:31;25.08;;;14.65;;
58954;SDS011;45815;52.334;5.024;2024-02-15T06:07:57;29.10;;;15.07;;
58954;SDS011;45815;52.334;5.024;2024-02-15T06:10:24;24.77;;;14.02;;
58954;SDS011;45815;52.334;5.024;2024-02-15T06:12:50;24.45;;;14.45;;
58954;SDS011;45815;52.334;5.024;2024-02-15T06:15:16;25.20;;;14.10;;
58954;SDS011;45815;52.334;5.024;2024-02-15T06:17:41;23.60;;;14.88;;
58954;SDS011;45815;52.334;5.024;2024-02-15T06:20:10;24.38;;;13.85;;
58954;SDS011;45815;52.334;5.024;2024-02-15T06:22:39;28.38;;;15.15;;
58954;SDS011;45815;52.334;5.024;2024-02-15T06:25:05;28.33;;;15.13;;
58954;SDS011;45815;52.334;5.024;2024-02-15T06:27:31;24.02;;;13.15;;
58954;SDS011;45815;52.334;5.024;2024-02-15T06:29:57;24.02;;;15.00;;
58954;SDS011;45815;52.334;5.024;2024-02-15T06:32:42;30.17;;;15.23;;
58954;SDS011;45815;52.334;5.024;2024-02-15T06:35:26;31.02;;;15.95;;
58954;SDS011;45815;52.334;5.024;2024-02-15T06:38:11;26.98;;;16.25;;
58954;SDS011;45815;52.334;5.024;2024-02-15T06:40:54;26.50;;;14.65;;
58954;SDS011;45815;52.334;5.024;2024-02-15T06:43:20;27.70;;;16.17;;
58954;SDS011;45815;52.334;5.024;2024-02-15T06:45:46;27.92;;;15.88;;
58954;SDS011;45815;52.334;5.024;2024-02-15T06:48:12;27.92;;;16.38;;
58954;SDS011;45815;52.334;5.024;2024-02-15T06:50:38;27.13;;;15.95;;
58954;SDS011;45815;52.334;5.024;2024-02-15T06:53:04;28.42;;;16.98;;
58954;SDS011;45815;52.334;5.024;2024-02-15T06:55:30;27.90;;;16.42;;
58954;SDS011;45815;52.334;5.024;2024-02-15T06:57:56;31.17;;;16.65;;
58954;SDS011;45815;52.334;5.024;2024-02-15T07:00:21;29.80;;;17.00;;
58954;SDS011;45815;52.334;5.024;2024-02-15T07:02:47;29.70;;;16.65;;
58954;SDS011;45815;52.334;5.024;2024-02-15T07:05:13;28.85;;;16.08;;
58954;SDS011;45815;52.334;5.024;2024-02-15T07:07:39;26.27;;;15.98;;
58954;SDS011;45815;52.334;5.024;2024-02-15T07:10:07;28.60;;;16.00;;
58954;SDS011;45815;52.334;5.024;2024-02-15T07:12:34;26.45;;;15.65;;
58954;SDS011;45815;52.334;5.024;2024-02-15T07:14:59;25.48;;;15.05;;
58954;SDS011;45815;52.334;5.024;2024-02-15T07:17:27;25.63;;;15.25;;
58954;SDS011;45815;52.334;5.024;2024-02-15T07:19:53;24.33;;;15.10;;
58954;SDS011;45815;52.334;5.024;2024-02-15T07:22:18;25.58;;;14.80;;
58954;SDS011;45815;52.334;5.024;2024-02-15T07:24:43;25.63;;;14.20;;
58954;SDS011;45815;52.334;5.024;2024-02-15T07:27:09;28.67;;;15.30;;
58954;SDS011;45815;52.334;5.024;2024-02-15T07:29:35;23.80;;;14.02;;
58954;SDS011;45815;52.334;5.024;2024-02-15T07:32:03;21.52;;;13.38;;
58954;SDS011;45815;52.334;5.024;2024-02-15T07:34:32;22.63;;;13.52;;
58954;SDS011;45815;52.334;5.024;2024-02-15T07:37:02;22.48;;;13.75;;
58954;SDS011;45815;52.334;5.024;2024-02-15T07:39:27;21.77;;;13.30;;
58954;SDS011;45815;52.334;5.024;2024-02-15T07:41:53;20.42;;;12.25;;
58954;SDS011;45815;52.334;5.024;2024-02-15T07:44:20;21.00;;;11.73;;
58954;SDS011;45815;52.334;5.024;2024-02-15T07:46:47;20.05;;;12.18;;
58954;SDS011;45815;52.334;5.024;2024-02-15T07:49:12;18.75;;;12.38;;
58954;SDS011;45815;52.334;5.024;2024-02-15T07:51:38;17.30;;;11.35;;
58954;SDS011;45815;52.334;5.024;2024-02-15T07:54:04;18.45;;;11.90;;
58954;SDS011;45815;52.334;5.024;2024-02-15T07:56:29;20.25;;;11.93;;
58954;SDS011;45815;52.334;5.024;2024-02-15T07:58:55;18.95;;;11.65;;
58954;SDS011;45815;52.334;5.024;2024-02-15T08:01:21;22.48;;;12.95;;
58954;SDS011;45815;52.334;5.024;2024-02-15T08:03:47;18.88;;;11.13;;
58954;SDS011;45815;52.334;5.024;2024-02-15T08:06:13;18.55;;;11.85;;
58954;SDS011;45815;52.334;5.024;2024-02-15T08:08:41;17.48;;;10.57;;
58954;SDS011;45815;52.334;5.024;2024-02-15T08:11:10;18.95;;;11.30;;
58954;SDS011;45815;52.334;5.024;2024-02-15T08:14:00;15.63;;;10.18;;
58954;SDS011;45815;52.334;5.024;2024-02-15T08:16:25;15.35;;;9.90;;
58954;SDS011;45815;52.334;5.024;2024-02-15T08:18:54;16.25;;;10.40;;
58954;SDS011;45815;52.334;5.024;2024-02-15T08:21:32;17.10;;;9.52;;
58954;SDS011;45815;52.334;5.024;2024-02-15T08:24:01;16.15;;;9.68;;
58954;SDS011;45815;52.334;5.024;2024-02-15T08:26:31;16.05;;;9.60;;
58954;SDS011;45815;52.334;5.024;2024-02-15T08:29:04;16.88;;;9.52;;
58954;SDS011;45815;52.334;5.024;2024-02-15T08:31:31;13.82;;;8.77;;
58954;SDS011;45815;52.334;5.024;2024-02-15T08:33:56;15.27;;;9.27;;
58954;SDS011;45815;52.334;5.024;2024-02-15T08:36:22;16.48;;;9.00;;
58954;SDS011;45815;52.334;5.024;2024-02-15T08:38:48;16.98;;;9.45;;
58954;SDS011;45815;52.334;5.024;2024-02-15T08:41:15;15.25;;;9.43;;
58954;SDS011;45815;52.334;5.024;2024-02-15T08:43:42;14.98;;;8.38;;
58954;SDS011;45815;52.334;5.024;2024-02-15T08:46:08;13.88;;;8.15;;
58954;SDS011;45815;52.334;5.024;2024-02-15T08:48:35;15.35;;;8.70;;
58954;SDS011;45815;52.334;5.024;2024-02-15T08:51:00;14.70;;;8.07;;
58954;SDS011;45815;52.334;5.024;2024-02-15T08:53:26;12.40;;;7.55;;
58954;SDS011;45815;52.334;5.024;2024-02-15T08:55:52;12.48;;;7.93;;
58954;SDS011;45815;52.334;5.024;2024-02-15T08:58:18;12.00;;;7.72;;
58954;SDS011;45815;52.334;5.024;2024-02-15T09:00:44;11.93;;;7.63;;
58954;SDS011;45815;52.334;5.024;2024-02-15T09:03:10;11.85;;;7.38;;
58954;SDS011;45815;52.334;5.024;2024-02-15T09:05:37;12.32;;;7.85;;
58954;SDS011;45815;52.334;5.024;2024-02-15T09:08:03;12.50;;;8.32;;
58954;SDS011;45815;52.334;5.024;2024-02-15T09:10:31;14.80;;;7.40;;
58954;SDS011;45815;52.334;5.024;2024-02-15T09:12:57;14.05;;;8.35;;
58954;SDS011;45815;52.334;5.024;2024-02-15T09:15:22;12.15;;;7.85;;
58954;SDS011;45815;52.334;5.024;2024-02-15T09:17:48;13.45;;;8.25;;
58954;SDS011;45815;52.334;5.024;2024-02-15T09:20:14;12.82;;;8.73;;
58954;SDS011;45815;52.334;5.024;2024-02-15T09:25:09;14.88;;;8.43;;
58954;SDS011;45815;52.334;5.024;2024-02-15T09:27:38;13.05;;;8.45;;
58954;SDS011;45815;52.334;5.024;2024-02-15T09:30:04;13.93;;;8.27;;
58954;SDS011;45815;52.334;5.024;2024-02-15T09:32:34;18.75;;;9.07;;
58954;SDS011;45815;52.334;5.024;2024-02-15T09:35:03;14.55;;;8.65;;
58954;SDS011;45815;52.334;5.024;2024-02-15T09:37:32;12.65;;;8.48;;
58954;SDS011;45815;52.334;5.024;2024-02-15T09:39:58;14.20;;;8.10;;
58954;SDS011;45815;52.334;5.024;2024-02-15T09:42:28;16.17;;;8.82;;
58954;SDS011;45815;52.334;5.024;2024-02-15T09:44:54;15.82;;;9.00;;
58954;SDS011;45815;52.334;5.024;2024-02-15T09:47:19;14.82;;;8.73;;
58954;SDS011;45815;52.334;5.024;2024-02-15T09:49:46;17.67;;;9.23;;
58954;SDS011;45815;52.334;5.024;2024-02-15T09:52:12;15.18;;;9.10;;
58954;SDS011;45815;52.334;5.024;2024-02-15T09:54:41;15.63;;;8.90;;
58954;SDS011;45815;52.334;5.024;2024-02-15T09:57:10;16.60;;;9.23;;
58954;SDS011;45815;52.334;5.024;2024-02-15T09:59:36;17.45;;;9.73;;
58954;SDS011;45815;52.334;5.024;2024-02-15T10:02:02;14.52;;;8.93;;
58954;SDS011;45815;52.334;5.024;2024-02-15T10:04:28;16.73;;;9.20;;
58954;SDS011;45815;52.334;5.024;2024-02-15T10:06:54;16.33;;;8.40;;
58954;SDS011;45815;52.334;5.024;2024-02-15T10:09:23;16.10;;;8.93;;
58954;SDS011;45815;52.334;5.024;2024-02-15T10:12:02;16.05;;;9.00;;
58954;SDS011;45815;52.334;5.024;2024-02-15T10:14:32;14.38;;;7.72;;
58954;SDS011;45815;52.334;5.024;2024-02-15T10:17:04;15.75;;;8.48;;
58954;SDS011;45815;52.334;5.024;2024-02-15T10:19:37;15.65;;;9.07;;
58954;SDS011;45815;52.334;5.024;2024-02-15T10:22:06;19.98;;;9.60;;
58954;SDS011;45815;52.334;5.024;2024-02-15T10:24:33;17.95;;;8.27;;
58954;SDS011;45815;52.334;5.024;2024-02-15T10:27:02;14.15;;;7.60;;
58954;SDS011;45815;52.334;5.024;2024-02-15T10:29:35;17.27;;;8.07;;
58954;SDS011;45815;52.334;5.024;2024-02-15T10:32:02;15.52;;;7.70;;
58954;SDS011;45815;52.334;5.024;2024-02-15T10:34:28;16.80;;;7.70;;
58954;SDS011;45815;52.334;5.024;2024-02-15T10:36:55;17.58;;;8.20;;
58954;SDS011;45815;52.334;5.024;2024-02-15T10:39:44;19.58;;;7.68;;
58954;SDS011;45815;52.334;5.024;2024-02-15T10:42:09;17.95;;;7.80;;
58954;SDS011;45815;52.334;5.024;2024-02-15T10:44:37;19.92;;;8.52;;
58954;SDS011;45815;52.334;5.024;2024-02-15T10:47:06;18.08;;;8.20;;
58954;SDS011;45815;52.334;5.024;2024-02-15T10:49:33;17.45;;;7.70;;
58954;SDS011;45815;52.334;5.024;2024-02-15T10:52:01;19.63;;;8.63;;
58954;SDS011;45815;52.334;5.024;2024-02-15T10:54:51;20.73;;;8.68;;
58954;SDS011;45815;52.334;5.024;2024-02-15T10:57:20;18.63;;;8.00;;
58954;SDS011;45815;52.334;5.024;2024-02-15T10:59:55;19.20;;;7.75;;
58954;SDS011;45815;52.334;5.024;2024-02-15T11:02:30;13.68;;;7.85;;
58954;SDS011;45815;52.334;5.024;2024-02-15T11:05:03;18.63;;;8.35;;
58954;SDS011;45815;52.334;5.024;2024-02-15T11:07:34;16.27;;;8.45;;
58954;SDS011;45815;52.334;5.024;2024-02-15T11:10:00;17.90;;;7.57;;
58954;SDS011;45815;52.334;5.024;2024-02-15T11:12:26;17.50;;;8.20;;
58954;SDS011;45815;52.334;5.024;2024-02-15T11:14:52;17.67;;;8.00;;
58954;SDS011;45815;52.334;5.024;2024-02-15T11:20:02;14.13;;;6.45;;
58954;SDS011;45815;52.334;5.024;2024-02-15T11:22:34;16.58;;;7.25;;
58954;SDS011;45815;52.334;5.024;2024-02-15T11:25:02;17.65;;;7.45;;
58954;SDS011;45815;52.334;5.024;2024-02-15T11:27:37;16.35;;;8.00;;
58954;SDS011;45815;52.334;5.024;2024-02-15T11:30:04;14.93;;;7.22;;
58954;SDS011;45815;52.334;5.024;2024-02-15T11:32:48;14.10;;;6.87;;
58954;SDS011;45815;52.334;5.024;2024-02-15T11:35:25;17.77;;;7.30;;
58954;SDS011;45815;52.334;5.024;2024-02-15T11:37:56;17.05;;;7.13;;
58954;SDS011;45815;52.334;5.024;2024-02-15T11:43:06;16.48;;;7.35;;
58954;SDS011;45815;52.334;5.024;2024-02-15T11:45:33;16.17;;;7.78;;
58954;SDS011;45815;52.334;5.024;2024-02-15T11:48:07;14.60;;;7.75;;
58954;SDS011;45815;52.334;5.024;2024-02-15T11:50:36;16.30;;;8.32;;
58954;SDS011;45815;52.334;5.024;2024-02-15T11:53:02;17.52;;;8.57;;
58954;SDS011;45815;52.334;5.024;2024-02-15T11:55:34;17.33;;;8.02;;
58954;SDS011;45815;52.334;5.024;2024-02-15T11:58:03;16.20;;;8.85;;
58954;SDS011;45815;52.334;5.024;2024-02-15T12:00:38;19.90;;;9.00;;
58954;SDS011;45815;52.334;5.024;2024-02-15T12:03:22;17.75;;;9.15;;
58954;SDS011;45815;52.334;5.024;2024-02-15T12:06:07;18.38;;;9.20;;
58954;SDS011;45815;52.334;5.024;2024-02-15T12:08:52;17.80;;;9.02;;
58954;SDS011;45815;52.334;5.024;2024-02-15T12:11:37;20.70;;;7.75;;
58954;SDS011;45815;52.334;5.024;2024-02-15T12:14:21;16.52;;;8.73;;
58954;SDS011;45815;52.334;5.024;2024-02-15T12:17:06;15.77;;;8.60;;
58954;SDS011;45815;52.334;5.024;2024-02-15T12:19:52;16.48;;;8.73;;
58954;SDS011;45815;52.334;5.024;2024-02-15T12:22:23;18.20;;;8.82;;
58954;SDS011;45815;52.334;5.024;2024-02-15T12:27:24;14.18;;;7.93;;
58954;SDS011;45815;52.334;5.024;2024-02-15T12:29:58;13.60;;;8.13;;
58954;SDS011;45815;52.334;5.024;2024-02-15T12:32:27;15.93;;;8.20;;
58954;SDS011;45815;52.334;5.024;2024-02-15T12:35:01;11.82;;;8.05;;
58954;SDS011;45815;52.334;5.024;2024-02-15T12:37:37;18.75;;;8.40;;
58954;SDS011;45815;52.334;5.024;2024-02-15T12:40:10;15.18;;;7.40;;
58954;SDS011;45815;52.334;5.024;2024-02-15T12:42:39;13.23;;;7.40;;
58954;SDS011;45815;52.334;5.024;2024-02-15T12:45:04;12.75;;;8.10;;
58954;SDS011;45815;52.334;5.024;2024-02-15T12:47:32;17.45;;;8.27;;
58954;SDS011;45815;52.334;5.024;2024-02-15T12:49:57;16.58;;;9.15;;
58954;SDS011;45815;52.334;5.024;2024-02-15T12:52:32;15.02;;;8.10;;
58954;SDS011;45815;52.334;5.024;2024-02-15T12:57:34;12.98;;;7.72;;
58954;SDS011;45815;52.334;5.024;2024-02-15T13:00:01;12.75;;;7.55;;
58954;SDS011;45815;52.334;5.024;2024-02-15T13:02:29;12.07;;;7.88;;
58954;SDS011;45815;52.334;5.024;2024-02-15T13:04:58;11.93;;;7.55;;
58954;SDS011;45815;52.334;5.024;2024-02-15T13:07:23;12.75;;;7.57;;
58954;SDS011;45815;52.334;5.024;2024-02-15T13:09:48;12.77;;;7.85;;
58954;SDS011;45815;52.334;5.024;2024-02-15T13:12:14;11.10;;;7.32;;
58954;SDS011;45815;52.334;5.024;2024-02-15T13:14:40;13.70;;;7.88;;
58954;SDS011;45815;52.334;5.024;2024-02-15T13:17:05;13.85;;;8.10;;
58954;SDS011;45815;52.334;5.024;2024-02-15T13:19:31;12.07;;;7.00;;
58954;SDS011;45815;52.334;5.024;2024-02-15T13:21:57;10.77;;;7.68;;
58954;SDS011;45815;52.334;5.024;2024-02-15T13:24:23;12.52;;;7.25;;
58954;SDS011;45815;52.334;5.024;2024-02-15T13:26:51;11.30;;;7.25;;
58954;SDS011;45815;52.334;5.024;2024-02-15T13:29:16;10.80;;;7.07;;
58954;SDS011;45815;52.334;5.024;2024-02-15T13:31:42;12.05;;;6.38;;
58954;SDS011;45815;52.334;5.024;2024-02-15T13:34:08;10.32;;;6.82;;
58954;SDS011;45815;52.334;5.024;2024-02-15T13:36:34;12.40;;;6.72;;
58954;SDS011;45815;52.334;5.024;2024-02-15T13:39:01;8.98;;;5.95;;
58954;SDS011;45815;52.334;5.024;2024-02-15T13:41:29;8.60;;;6.03;;
58954;SDS011;45815;52.334;5.024;2024-02-15T13:43:55;8.60;;;5.30;;
58954;SDS011;45815;52.334;5.024;2024-02-15T13:46:20;8.63;;;4.95;;
58954;SDS011;45815;52.334;5.024;2024-02-15T13:48:47;9.65;;;5.50;;
58954;SDS011;45815;52.334;5.024;2024-02-15T13:51:12;9.02;;;4.57;;
58954;SDS011;45815;52.334;5.024;2024-02-15T13:53:37;10.27;;;4.90;;
58954;SDS011;45815;52.334;5.024;2024-02-15T13:56:03;8.27;;;3.83;;
58954;SDS011;45815;52.334;5.024;2024-02-15T13:58:30;8.45;;;3.75;;
58954;SDS011;45815;52.334;5.024;2024-02-15T14:00:56;10.57;;;4.25;;
58954;SDS011;45815;52.334;5.024;2024-02-15T14:03:22;9.85;;;4.35;;
58954;SDS011;45815;52.334;5.024;2024-02-15T14:05:49;9.23;;;3.88;;
58954;SDS011;45815;52.334;5.024;2024-02-15T14:08:15;7.05;;;3.63;;
58954;SDS011;45815;52.334;5.024;2024-02-15T14:10:40;7.10;;;3.20;;
58954;SDS011;45815;52.334;5.024;2024-02-15T14:13:06;8.10;;;3.33;;
58954;SDS011;45815;52.334;5.024;2024-02-15T14:15:34;8.98;;;3.80;;
58954;SDS011;45815;52.334;5.024;2024-02-15T14:18:05;9.82;;;4.15;;
58954;SDS011;45815;52.334;5.024;2024-02-15T14:20:32;8.48;;;3.67;;
58954;SDS011;45815;52.334;5.024;2024-02-15T14:22:57;8.85;;;3.92;;
58954;SDS011;45815;52.334;5.024;2024-02-15T14:25:23;7.90;;;3.40;;
58954;SDS011;45815;52.334;5.024;2024-02-15T14:27:50;7.63;;;3.53;;
58954;SDS011;45815;52.334;5.024;2024-02-15T14:30:17;11.02;;;3.83;;
58954;SDS011;45815;52.334;5.024;2024-02-15T14:33:01;7.40;;;3.40;;
58954;SDS011;45815;52.334;5.024;2024-02-15T14:35:32;9.93;;;3.67;;
58954;SDS011;45815;52.334;5.024;2024-02-15T14:38:04;10.93;;;3.67;;
58954;SDS011;45815;52.334;5.024;2024-02-15T14:40:36;8.63;;;3.40;;
58954;SDS011;45815;52.334;5.024;2024-02-15T14:43:03;9.05;;;3.65;;
58954;SDS011;45815;52.334;5.024;2024-02-15T14:45:32;9.07;;;3.65;;
58954;SDS011;45815;52.334;5.024;2024-02-15T14:48:00;10.48;;;3.85;;